Atlantic City, NJ

11:38 PM EDT on August 22, 2014 (GMT -0400)
Miller | Change Station
CLOSE
Current Station
Airport
Location: Toms River,
Elevation: 82 ft
Nearby Weather Stations

Elev 82 ft 39.93 °N, 74.29 °W | Updated 3 minutes ago

Overcast
Overcast
68 °F
Feels Like 68 °F
N
0
Wind Variable Wind from North

Today
High -- | Low -- °F
--% Chance of Precip.
Yesterday
High -- | Low -- °F
Precip. -- in
6:16 AM 7:43 PM
Waning Crescent, 5% visible
Pressure 30.04 in
Visibility 10.0 miles
Clouds Scattered Clouds 6500 ft
Mostly Cloudy 8500 ft
Overcast 11000 ft
Dew Point 63 °F
Humidity 83%
Rainfall 2.94 in
Snow Depth Not available.
UV 0 out of 12
Pollen 8.50 out of 12
Air Quality Not available.
Flu Activity Not available.
METAR KMJX 230335Z AUTO 00000KT 10SM SCT065 BKN085 OVC110 20/17 A3004 RMK AO1

More Conditions Fewer Conditions

Pressure 30.04 in
Visibility 10.0 miles
Clouds Scattered Clouds 6500 ft
Mostly Cloudy 8500 ft
Overcast 11000 ft
Dew Point 63 °F
Humidity 83%
Rainfall 2.94 in
Snow Depth Not available.
UV 0 out of 12
Pollen 8.50 out of 12
Air Quality Not available.
Flu Activity Not available.
METAR KMJX 230335Z AUTO 00000KT 10SM SCT065 BKN085 OVC110 20/17 A3004 RMK AO1

More Conditions Fewer Conditions

10-Day Weather Forecast

Almanac

Astronomy

Aug. 22, 2014 Rise Set
Actual Time 6:16 AM EDT 7:43 PM EDT
Civil Twilight 5:48 AM EDT 8:11 PM EDT
Nautical Twilight 5:14 AM EDT 8:45 PM EDT
Astronomical Twilight 4:39 AM EDT 9:20 PM EDT
Moon 3:37 AM EDT (8/22) 5:50 PM EDT (8/22)
Length of Visible Light 14h 22m
Length of Day
13h 26m
Tomorrow will be 2m 23s shorter.
Waning Crescent, 5% of the Moon is Illuminated
Today
Waning Crescent
Aug 25
New
Sep 2
First Quarter
Sep 8
Full
Sep 15
Last Quarter

Today's Extremes

State Highs State Lows

Community

WunderPhotos

Upload Photos

1,746,352 photos uploaded!

WunderBlogs® & News

Nearby

Snow Depth

Station Depth Elevation
No new snow has been reported.

Earthquake Activity

City Distance Mag. Time & Date
No recent earthquake activity has been reported nearby.
Minimum magnitude displayed is 2.5.

Coastal Water Temperatures

Place Temperature
Atlantic City, NJ 75.9 °F

Nearby Weather Stations